createdAt,value
2023-05-02T00:00:08.235Z,1.55
2023-05-02T00:02:36.263Z,0.75
2023-05-02T00:05:05.208Z,2.40
2023-05-02T00:07:35.811Z,1.58
2023-05-02T00:10:06.097Z,0.50
2023-05-02T00:12:34.029Z,1.33
2023-05-02T00:15:01.851Z,0.98
2023-05-02T00:17:29.622Z,0.95
2023-05-02T00:19:57.816Z,0.68
2023-05-02T00:22:25.868Z,1.67
2023-05-02T00:24:57.685Z,1.00
2023-05-02T00:27:26.916Z,1.33
2023-05-02T00:29:55.394Z,2.15
2023-05-02T00:32:23.311Z,2.17
2023-05-02T00:34:51.342Z,1.30
2023-05-02T00:37:19.072Z,2.92
2023-05-02T00:39:47.208Z,2.33
2023-05-02T00:42:14.923Z,1.83
2023-05-02T00:44:44.011Z,2.40
2023-05-02T00:47:11.954Z,1.55
2023-05-02T00:49:39.665Z,2.05
2023-05-02T00:52:08.456Z,1.13
2023-05-02T00:54:38.229Z,2.15
2023-05-02T00:57:06.257Z,1.65
2023-05-02T00:59:35.592Z,0.43
2023-05-02T01:02:17.236Z,1.23
2023-05-02T01:04:54.961Z,2.15
2023-05-02T01:07:48.241Z,1.30
2023-05-02T01:10:24.588Z,1.10
2023-05-02T01:13:00.985Z,1.27
2023-05-02T01:15:29.448Z,2.15
2023-05-02T01:18:01.928Z,1.75
2023-05-02T01:20:31.730Z,0.75
2023-05-02T01:23:08.456Z,0.52
2023-05-02T01:25:50.052Z,1.08
2023-05-02T01:28:29.415Z,1.80
2023-05-02T01:30:59.895Z,3.67
2023-05-02T01:33:29.785Z,1.70
2023-05-02T01:35:59.463Z,1.15
2023-05-02T01:38:28.589Z,1.83
2023-05-02T01:41:03.330Z,0.85
2023-05-02T01:43:33.784Z,0.73
2023-05-02T01:46:05.262Z,1.08
2023-05-02T01:48:34.008Z,0.68
2023-05-02T01:51:03.753Z,2.25
2023-05-02T01:53:34.768Z,2.53
2023-05-02T01:56:03.283Z,0.93
2023-05-02T01:58:33.315Z,0.63
2023-05-02T02:01:05.858Z,0.60
2023-05-02T02:03:33.968Z,0.55
2023-05-02T02:06:04.101Z,1.20
2023-05-02T02:08:32.133Z,0.50
2023-05-02T02:11:05.433Z,0.30
2023-05-02T02:13:38.492Z,1.23
2023-05-02T02:16:12.470Z,0.60
2023-05-02T02:18:40.810Z,1.05
2023-05-02T02:21:13.281Z,0.25
2023-05-02T02:23:43.802Z,1.98
2023-05-02T02:26:14.555Z,0.98
2023-05-02T02:28:43.224Z,1.08
2023-05-02T02:31:12.450Z,0.28
2023-05-02T02:33:41.015Z,0.77
2023-05-02T02:36:16.269Z,0.25
2023-05-02T02:38:52.751Z,0.28
2023-05-02T02:41:26.487Z,1.85
2023-05-02T02:44:05.159Z,1.13
2023-05-02T02:46:48.837Z,0.90
2023-05-02T02:49:31.036Z,1.23
2023-05-02T02:52:06.637Z,1.08
2023-05-02T02:54:40.488Z,1.38
2023-05-02T02:57:17.556Z,1.17
2023-05-02T02:59:52.362Z,0.82
2023-05-02T03:02:27.458Z,0.80
2023-05-02T03:04:57.195Z,1.05
2023-05-02T03:07:25.362Z,2.38
2023-05-02T03:09:53.174Z,1.42
2023-05-02T03:12:23.885Z,0.90
2023-05-02T03:14:51.934Z,1.10
2023-05-02T03:17:23.323Z,1.50
2023-05-02T03:19:52.788Z,0.80
2023-05-02T03:22:20.568Z,1.15
2023-05-02T03:24:48.227Z,1.63
2023-05-02T03:27:19.348Z,0.93
2023-05-02T03:29:47.733Z,1.80
2023-05-02T03:32:18.279Z,1.00
2023-05-02T03:34:47.503Z,0.75
2023-05-02T03:37:15.332Z,1.13
2023-05-02T03:39:43.111Z,0.88
2023-05-02T03:42:11.049Z,1.45
2023-05-02T03:44:38.932Z,1.38
2023-05-02T03:47:07.345Z,1.50
2023-05-02T03:49:39.678Z,1.73
2023-05-02T03:52:12.807Z,1.77
2023-05-02T03:54:43.196Z,1.10
2023-05-02T03:57:11.993Z,1.45
2023-05-02T03:59:41.655Z,1.90
2023-05-02T04:02:19.612Z,1.65
2023-05-02T04:04:50.282Z,1.50
2023-05-02T04:07:22.340Z,1.67
2023-05-02T04:09:57.625Z,1.33
2023-05-02T04:12:25.469Z,1.05
2023-05-02T04:14:55.023Z,1.90
2023-05-02T04:17:26.860Z,0.60
2023-05-02T04:19:54.969Z,0.93
2023-05-02T04:22:27.350Z,0.80
2023-05-02T04:24:59.846Z,1.83
2023-05-02T04:27:28.578Z,1.27
2023-05-02T04:29:56.397Z,2.38
2023-05-02T04:32:24.328Z,1.13
2023-05-02T04:34:53.085Z,2.40
2023-05-02T04:37:21.774Z,1.05
2023-05-02T04:39:51.599Z,0.57
2023-05-02T04:42:25.003Z,0.45
2023-05-02T04:45:11.218Z,1.30
2023-05-02T04:47:39.947Z,1.33
2023-05-02T04:50:09.373Z,1.10
2023-05-02T04:52:37.219Z,0.50
2023-05-02T04:55:07.860Z,1.48
2023-05-02T04:57:35.993Z,0.57
2023-05-02T05:00:04.489Z,2.45
2023-05-02T05:02:33.102Z,1.90
2023-05-02T05:05:02.392Z,1.50
2023-05-02T05:07:30.286Z,1.88
2023-05-02T05:09:58.765Z,1.58
2023-05-02T05:12:31.592Z,2.03
2023-05-02T05:14:59.341Z,0.90
2023-05-02T05:17:28.865Z,1.00
2023-05-02T05:19:57.409Z,1.02
2023-05-02T05:22:25.407Z,1.00
2023-05-02T05:24:54.448Z,0.90
2023-05-02T05:27:24.906Z,1.40
2023-05-02T05:29:54.179Z,1.92
2023-05-02T05:32:23.430Z,1.50
2023-05-02T05:34:52.998Z,1.73
2023-05-02T05:37:25.420Z,1.55
2023-05-02T05:39:53.338Z,0.63
2023-05-02T05:42:21.077Z,2.13
2023-05-02T05:44:52.177Z,1.80
2023-05-02T05:47:27.816Z,1.55
2023-05-02T05:49:56.720Z,0.90
2023-05-02T05:52:28.608Z,2.22
2023-05-02T05:55:02.752Z,2.35
2023-05-02T05:57:31.116Z,3.00
2023-05-02T05:59:59.231Z,1.10
2023-05-02T06:02:28.685Z,2.85
2023-05-02T06:05:02.773Z,1.77
2023-05-02T06:07:33.263Z,1.08
2023-05-02T06:10:01.205Z,2.22
2023-05-02T06:12:31.897Z,2.20
2023-05-02T06:14:59.656Z,1.23
2023-05-02T06:17:51.526Z,1.23
2023-05-02T06:20:19.850Z,1.73
2023-05-02T06:22:49.150Z,0.98
2023-05-02T06:25:20.407Z,1.40
2023-05-02T06:27:51.944Z,1.85
2023-05-02T06:30:20.313Z,2.50
2023-05-02T06:32:49.747Z,2.47
2023-05-02T06:35:17.611Z,1.10
2023-05-02T06:37:45.388Z,2.20
2023-05-02T06:40:14.820Z,2.00
2023-05-02T06:42:42.527Z,2.58
2023-05-02T06:45:10.876Z,1.33
2023-05-02T06:47:38.752Z,1.20
2023-05-02T06:50:09.577Z,1.52
2023-05-02T06:52:37.405Z,1.30
2023-05-02T06:55:05.813Z,1.40
2023-05-02T06:57:33.528Z,1.65
2023-05-02T07:00:01.709Z,1.63
2023-05-02T07:02:29.738Z,1.23
2023-05-02T07:04:57.630Z,2.90
2023-05-02T07:07:27.077Z,2.08
2023-05-02T07:09:55.150Z,1.90
2023-05-02T07:12:23.490Z,1.63
2023-05-02T07:14:51.404Z,2.50
2023-05-02T07:17:19.632Z,4.05
2023-05-02T07:19:47.404Z,3.83
2023-05-02T07:22:16.283Z,3.03
2023-05-02T07:24:45.451Z,2.42
2023-05-02T07:27:14.006Z,1.00
2023-05-02T07:29:42.497Z,4.93
2023-05-02T07:32:10.390Z,2.65
2023-05-02T07:34:38.388Z,2.78
2023-05-02T07:37:06.104Z,3.50
2023-05-02T07:39:34.721Z,4.90
2023-05-02T07:42:03.998Z,1.67
2023-05-02T07:44:35.103Z,6.10
2023-05-02T07:47:02.970Z,4.15
2023-05-02T07:49:32.250Z,4.78
2023-05-02T07:51:59.964Z,5.05
2023-05-02T07:54:27.954Z,4.35
2023-05-02T07:56:58.158Z,5.20
2023-05-02T07:59:27.456Z,5.07
2023-05-02T08:01:55.251Z,4.13
2023-05-02T08:04:23.561Z,3.03
2023-05-02T08:06:51.647Z,4.15
2023-05-02T08:09:19.823Z,5.10
2023-05-02T08:11:47.535Z,4.72
2023-05-02T08:14:16.718Z,4.75
2023-05-02T08:16:46.755Z,3.55
2023-05-02T08:19:14.796Z,4.78
2023-05-02T08:21:43.694Z,4.40
2023-05-02T08:24:11.556Z,4.28
2023-05-02T08:26:39.420Z,5.95
2023-05-02T08:29:07.497Z,2.30
2023-05-02T08:31:35.993Z,3.78
2023-05-02T08:34:05.982Z,2.78
2023-05-02T08:36:37.178Z,1.88
2023-05-02T08:39:05.067Z,3.33
2023-05-02T08:41:33.225Z,2.70
2023-05-02T08:44:01.659Z,2.97
2023-05-02T08:46:30.048Z,3.90
2023-05-02T08:48:59.746Z,2.25
2023-05-02T08:51:29.988Z,1.40
2023-05-02T08:53:59.160Z,2.47
2023-05-02T08:56:27.423Z,4.05
2023-05-02T08:58:55.230Z,1.58
2023-05-02T09:01:24.807Z,1.90
2023-05-02T09:03:54.602Z,3.05
2023-05-02T09:06:23.506Z,3.80
2023-05-02T09:08:53.361Z,3.00
2023-05-02T09:11:21.700Z,3.03
2023-05-02T09:13:51.768Z,1.85
2023-05-02T09:16:22.885Z,0.80
2023-05-02T09:18:52.285Z,1.38
2023-05-02T09:21:21.713Z,3.70
2023-05-02T09:23:52.921Z,4.28
2023-05-02T09:26:22.130Z,5.55
2023-05-02T09:28:51.411Z,5.00
2023-05-02T09:31:43.679Z,4.63
2023-05-02T09:34:12.103Z,5.32
2023-05-02T09:36:44.539Z,5.18
2023-05-02T09:39:15.642Z,5.00
2023-05-02T09:41:43.827Z,5.93
2023-05-02T09:44:12.599Z,5.45
2023-05-02T09:46:41.930Z,4.20
2023-05-02T09:49:09.900Z,5.00
2023-05-02T09:51:37.814Z,4.75
2023-05-02T09:54:05.822Z,3.85
2023-05-02T09:56:53.288Z,5.72
2023-05-02T09:59:21.131Z,6.03
2023-05-02T10:01:57.355Z,4.53
2023-05-02T10:04:26.209Z,5.70
2023-05-02T10:06:55.568Z,4.22
2023-05-02T10:09:23.748Z,4.25
2023-05-02T10:11:55.018Z,4.45
2023-05-02T10:14:27.813Z,4.15
2023-05-02T10:17:03.989Z,2.30
2023-05-02T10:19:39.032Z,2.13
2023-05-02T10:22:07.986Z,3.67
2023-05-02T10:24:36.020Z,4.80
2023-05-02T10:27:05.601Z,4.22
2023-05-02T10:29:33.391Z,4.40
2023-05-02T10:32:02.184Z,7.30
2023-05-02T10:34:33.771Z,4.05
2023-05-02T10:37:02.274Z,3.47
2023-05-02T10:39:31.210Z,5.90
2023-05-02T10:42:00.678Z,5.22
2023-05-02T10:44:41.349Z,6.30
2023-05-02T10:47:22.156Z,4.72
2023-05-02T10:49:54.764Z,5.15
2023-05-02T10:52:31.638Z,6.25
2023-05-02T10:55:15.979Z,4.45
2023-05-02T10:58:23.536Z,4.43
2023-05-02T11:00:53.015Z,4.07
2023-05-02T11:03:55.200Z,6.78
2023-05-02T11:06:23.170Z,3.55
2023-05-02T11:08:50.954Z,4.00
2023-05-02T11:11:41.944Z,3.15
2023-05-02T11:14:09.849Z,3.72
2023-05-02T11:17:07.876Z,3.13
2023-05-02T11:20:09.084Z,4.63
2023-05-02T11:22:37.132Z,4.20
2023-05-02T11:25:05.397Z,6.15
2023-05-02T11:27:39.314Z,7.75
2023-05-02T11:30:09.353Z,3.35
2023-05-02T11:33:16.268Z,5.43
2023-05-02T11:35:49.456Z,3.35
2023-05-02T11:38:20.475Z,5.15
2023-05-02T11:40:56.730Z,7.82
2023-05-02T11:43:26.403Z,6.88
2023-05-02T11:45:54.871Z,3.45
2023-05-02T11:48:24.227Z,5.88
2023-05-02T11:50:55.164Z,5.22
2023-05-02T11:53:24.932Z,4.55
2023-05-02T11:55:53.831Z,3.42
2023-05-02T11:58:23.435Z,3.70
2023-05-02T12:00:52.854Z,3.70
2023-05-02T12:03:25.695Z,5.18
2023-05-02T12:05:55.231Z,4.78
2023-05-02T12:08:25.108Z,3.17
2023-05-02T12:10:54.581Z,3.75
2023-05-02T12:13:24.123Z,4.32
2023-05-02T12:15:53.958Z,4.90
2023-05-02T12:18:24.429Z,4.60
2023-05-02T12:20:55.028Z,3.00
2023-05-02T12:23:24.907Z,2.30
2023-05-02T12:25:52.924Z,3.35
2023-05-02T12:28:23.338Z,3.50
2023-05-02T12:30:52.417Z,2.88
2023-05-02T12:33:20.266Z,3.72
2023-05-02T12:35:48.312Z,3.45
2023-05-02T12:38:20.523Z,3.28
2023-05-02T12:40:53.347Z,2.95
2023-05-02T12:43:21.930Z,3.58
2023-05-02T12:45:50.018Z,3.70
2023-05-02T12:48:23.031Z,3.38
2023-05-02T12:50:50.998Z,3.20
2023-05-02T12:53:39.563Z,2.85
2023-05-02T12:56:08.258Z,2.47
2023-05-02T12:58:42.872Z,2.25
2023-05-02T13:01:11.333Z,3.20
2023-05-02T13:03:40.038Z,3.20
2023-05-02T13:06:07.903Z,2.88
2023-05-02T13:08:37.618Z,2.53
2023-05-02T13:11:05.704Z,2.63
2023-05-02T13:13:35.297Z,5.10
2023-05-02T13:16:03.868Z,3.00
2023-05-02T13:18:31.751Z,3.97
2023-05-02T13:20:59.456Z,3.08
2023-05-02T13:23:27.197Z,2.92
2023-05-02T13:25:59.320Z,2.85
2023-05-02T13:28:28.343Z,3.22
2023-05-02T13:30:56.490Z,2.90
2023-05-02T13:33:24.248Z,2.50
2023-05-02T13:35:52.022Z,2.42
2023-05-02T13:38:19.874Z,1.90
2023-05-02T13:40:47.654Z,2.58
2023-05-02T13:43:16.859Z,2.00
2023-05-02T13:45:48.759Z,1.98
2023-05-02T13:48:18.119Z,2.53
2023-05-02T13:50:46.040Z,2.72
2023-05-02T13:53:13.900Z,2.88
2023-05-02T13:55:41.881Z,3.92
2023-05-02T13:58:09.661Z,3.38
2023-05-02T14:00:38.936Z,2.25
2023-05-02T14:03:06.709Z,2.70
2023-05-02T14:05:36.582Z,3.50
2023-05-02T14:08:04.456Z,2.33
2023-05-02T14:10:32.212Z,3.50
2023-05-02T14:12:59.903Z,2.67
2023-05-02T14:15:27.723Z,2.75
2023-05-02T14:17:57.032Z,2.95
2023-05-02T14:20:24.766Z,2.50
2023-05-02T14:22:52.669Z,3.72
2023-05-02T14:25:20.592Z,2.60
2023-05-02T14:27:48.531Z,2.70
2023-05-02T14:30:16.744Z,2.50
2023-05-02T14:32:44.576Z,2.35
2023-05-02T14:35:13.663Z,3.95
2023-05-02T14:37:44.988Z,2.30
2023-05-02T14:40:14.020Z,1.98
2023-05-02T14:42:42.224Z,2.40
2023-05-02T14:45:11.185Z,2.15
2023-05-02T14:47:38.881Z,1.48
2023-05-02T14:50:07.957Z,1.35
2023-05-02T14:52:37.041Z,1.45
2023-05-02T14:55:05.275Z,1.98
2023-05-02T14:57:33.681Z,1.88
2023-05-02T15:00:02.392Z,1.98
2023-05-02T15:02:30.440Z,1.98
2023-05-02T15:04:58.250Z,1.63
2023-05-02T15:07:26.112Z,2.13
2023-05-02T15:09:56.708Z,1.45
2023-05-02T15:12:24.434Z,2.00
2023-05-02T15:14:52.209Z,2.08
2023-05-02T15:17:19.998Z,1.25
2023-05-02T15:19:48.034Z,1.48
2023-05-02T15:22:18.188Z,1.00
2023-05-02T15:24:46.211Z,1.50
2023-05-02T15:27:15.656Z,1.08
2023-05-02T15:29:43.545Z,1.13
2023-05-02T15:32:11.623Z,0.65
2023-05-02T15:34:39.719Z,1.33
2023-05-02T15:37:08.211Z,0.82
2023-05-02T15:39:35.962Z,1.13
2023-05-02T15:42:04.844Z,1.20
2023-05-02T15:44:36.030Z,1.08
2023-05-02T15:47:04.458Z,0.82
2023-05-02T15:49:33.338Z,0.57
2023-05-02T15:52:02.549Z,0.90
2023-05-02T15:54:32.056Z,0.98
2023-05-02T15:57:00.989Z,0.95
2023-05-02T15:59:28.891Z,0.93
2023-05-02T16:01:58.404Z,1.08
2023-05-02T16:04:28.159Z,0.90
2023-05-02T16:06:56.332Z,0.70
2023-05-02T16:09:24.519Z,0.80
2023-05-02T16:11:52.365Z,0.80
2023-05-02T16:14:23.937Z,0.82
2023-05-02T16:16:51.759Z,0.88
2023-05-02T16:19:23.784Z,0.82
2023-05-02T16:21:51.692Z,1.15
2023-05-02T16:24:19.622Z,0.70
2023-05-02T16:26:47.498Z,1.02
2023-05-02T16:29:15.649Z,1.27
2023-05-02T16:31:44.643Z,0.88
2023-05-02T16:34:12.662Z,0.73
2023-05-02T16:36:42.440Z,0.47
2023-05-02T16:39:11.688Z,1.05
2023-05-02T16:41:39.380Z,0.68
2023-05-02T16:44:10.577Z,1.10
2023-05-02T16:46:38.520Z,1.10
2023-05-02T16:49:06.816Z,1.00
2023-05-02T16:51:34.957Z,0.60
2023-05-02T16:54:04.253Z,0.80
2023-05-02T16:56:32.310Z,1.48
2023-05-02T16:59:00.269Z,1.42
2023-05-02T17:01:28.304Z,2.28
2023-05-02T17:03:56.262Z,1.60
2023-05-02T17:06:24.056Z,1.38
2023-05-02T17:08:52.220Z,0.80
2023-05-02T17:11:21.756Z,1.90
2023-05-02T17:13:49.844Z,0.88
2023-05-02T17:16:17.952Z,1.13
2023-05-02T17:18:45.726Z,1.05
2023-05-02T17:21:14.006Z,1.25
2023-05-02T17:23:42.223Z,1.00
2023-05-02T17:26:14.383Z,1.17
2023-05-02T17:28:45.023Z,1.05
2023-05-02T17:31:13.017Z,1.35
2023-05-02T17:33:42.392Z,1.17
2023-05-02T17:36:10.523Z,1.30
2023-05-02T17:38:38.350Z,1.65
2023-05-02T17:41:06.270Z,0.88
2023-05-02T17:43:34.024Z,1.88
2023-05-02T17:46:08.090Z,1.50
2023-05-02T17:51:05.894Z,1.30
2023-05-02T17:53:35.079Z,1.20
2023-05-02T17:56:03.304Z,0.98
2023-05-02T17:58:31.269Z,0.77
2023-05-02T18:00:59.665Z,0.88
2023-05-02T18:03:28.887Z,1.58
2023-05-02T18:05:56.725Z,1.30
2023-05-02T18:08:24.689Z,0.85
2023-05-02T18:10:52.513Z,0.82
2023-05-02T18:13:20.322Z,1.00
2023-05-02T18:15:56.741Z,0.68
2023-05-02T18:18:25.029Z,1.00
2023-05-02T18:20:54.301Z,0.77
2023-05-02T18:23:22.433Z,1.17
2023-05-02T18:25:50.364Z,1.20
2023-05-02T18:28:18.058Z,1.15
2023-05-02T18:30:46.032Z,1.30
2023-05-02T18:33:13.843Z,1.38
2023-05-02T18:35:46.338Z,1.48
2023-05-02T18:38:16.935Z,1.27
2023-05-02T18:40:44.702Z,0.60
2023-05-02T18:43:12.584Z,1.00
2023-05-02T18:45:40.417Z,0.60
2023-05-02T18:48:08.439Z,1.35
2023-05-02T18:50:36.534Z,0.80
2023-05-02T18:53:04.329Z,1.23
2023-05-02T18:55:34.629Z,1.30
2023-05-02T18:58:02.669Z,1.48
2023-05-02T19:00:31.779Z,1.13
2023-05-02T19:02:59.853Z,1.60
2023-05-02T19:05:28.049Z,1.00
2023-05-02T19:07:55.959Z,1.30
2023-05-02T19:10:26.046Z,1.10
2023-05-02T19:12:55.268Z,0.70
2023-05-02T19:15:23.924Z,1.20
2023-05-02T19:17:53.138Z,0.93
2023-05-02T19:20:21.111Z,0.95
2023-05-02T19:22:49.314Z,0.85
2023-05-02T19:25:17.285Z,1.05
2023-05-02T19:27:47.736Z,1.33
2023-05-02T19:30:18.018Z,1.55
2023-05-02T19:32:47.710Z,1.38
2023-05-02T19:35:15.708Z,1.77
2023-05-02T19:37:44.004Z,1.23
2023-05-02T19:40:12.691Z,1.40
2023-05-02T19:42:40.464Z,1.63
2023-05-02T19:45:09.940Z,1.10
2023-05-02T19:47:43.745Z,1.35
2023-05-02T19:50:12.396Z,0.88
2023-05-02T19:52:41.627Z,1.83
2023-05-02T19:55:10.239Z,0.98
2023-05-02T19:57:38.075Z,0.88
2023-05-02T20:00:07.356Z,1.70
2023-05-02T20:05:10.641Z,1.27
2023-05-02T20:07:38.468Z,1.30
2023-05-02T20:10:07.554Z,0.65
2023-05-02T20:12:35.368Z,1.60
2023-05-02T20:15:03.720Z,1.48
2023-05-02T20:17:31.856Z,1.27
2023-05-02T20:20:07.128Z,2.05
2023-05-02T20:22:34.968Z,1.40
2023-05-02T20:25:02.777Z,1.00
2023-05-02T20:27:31.922Z,1.80
2023-05-02T20:29:59.926Z,1.10
2023-05-02T20:32:28.143Z,1.15
2023-05-02T20:34:56.145Z,2.08
2023-05-02T20:37:25.748Z,1.85
2023-05-02T20:39:53.487Z,1.65
2023-05-02T20:42:24.019Z,1.92
2023-05-02T20:44:56.337Z,1.20
2023-05-02T20:47:24.689Z,0.85
2023-05-02T20:49:52.437Z,1.52
2023-05-02T20:52:20.325Z,1.30
2023-05-02T20:54:50.038Z,0.88
2023-05-02T20:57:17.880Z,1.33
2023-05-02T20:59:46.034Z,2.35
2023-05-02T21:02:14.176Z,1.02
2023-05-02T21:04:42.230Z,1.08
2023-05-02T21:07:10.167Z,0.80
2023-05-02T21:09:38.059Z,1.77
2023-05-02T21:12:07.502Z,1.02
2023-05-02T21:14:35.479Z,1.08
2023-05-02T21:17:03.613Z,1.13
2023-05-02T21:19:32.974Z,1.48
2023-05-02T21:22:01.081Z,0.68
2023-05-02T21:24:28.988Z,0.63
2023-05-02T21:26:56.802Z,1.73
2023-05-02T21:29:26.055Z,1.13
2023-05-02T21:31:54.943Z,1.88
2023-05-02T21:34:22.888Z,0.70
2023-05-02T21:36:50.788Z,0.93
2023-05-02T21:39:18.627Z,1.20
2023-05-02T21:41:46.420Z,1.92
2023-05-02T21:44:14.312Z,0.75
2023-05-02T21:46:43.501Z,0.73
2023-05-02T21:49:11.245Z,1.00
2023-05-02T21:51:40.644Z,0.82
2023-05-02T21:54:08.450Z,0.95
2023-05-02T21:56:36.286Z,1.17
2023-05-02T21:59:04.100Z,1.30
2023-05-02T22:01:31.984Z,1.30
2023-05-02T22:04:01.223Z,0.98
2023-05-02T22:06:29.490Z,0.60
2023-05-02T22:08:57.296Z,0.57
2023-05-02T22:11:25.547Z,0.40
2023-05-02T22:13:53.528Z,0.98
2023-05-02T22:16:21.558Z,0.95
2023-05-02T22:18:50.508Z,1.40
2023-05-02T22:21:19.778Z,1.10
2023-05-02T22:23:47.770Z,1.67
2023-05-02T22:26:15.788Z,0.40
2023-05-02T22:28:43.512Z,1.30
2023-05-02T22:31:11.413Z,0.95
2023-05-02T22:33:39.221Z,1.13
2023-05-02T22:36:08.672Z,1.48
2023-05-02T22:38:39.600Z,1.55
2023-05-02T22:41:07.726Z,1.60
2023-05-02T22:43:35.544Z,1.00
2023-05-02T22:46:03.728Z,1.05
2023-05-02T22:48:31.767Z,1.10
2023-05-02T22:50:59.580Z,1.30
2023-05-02T22:53:28.863Z,1.00
2023-05-02T22:55:58.186Z,1.15
2023-05-02T22:58:25.993Z,0.77
2023-05-02T23:00:53.867Z,0.70
2023-05-02T23:03:21.861Z,1.45
2023-05-02T23:05:49.647Z,0.90
2023-05-02T23:08:17.423Z,1.05
2023-05-02T23:10:45.336Z,1.20
2023-05-02T23:13:14.890Z,1.00
2023-05-02T23:15:43.451Z,0.77
2023-05-02T23:18:11.297Z,0.45
2023-05-02T23:20:39.142Z,0.85
2023-05-02T23:23:06.875Z,0.47
2023-05-02T23:25:36.366Z,1.33
2023-05-02T23:28:04.193Z,1.05
2023-05-02T23:30:33.896Z,0.90
2023-05-02T23:33:02.060Z,1.40
2023-05-02T23:35:30.200Z,1.58
2023-05-02T23:38:00.152Z,1.42
2023-05-02T23:40:28.340Z,1.75
2023-05-02T23:42:56.212Z,1.58
2023-05-02T23:45:24.095Z,1.30
2023-05-02T23:47:53.316Z,1.40
2023-05-02T23:50:21.484Z,1.33
2023-05-02T23:52:49.233Z,0.70
2023-05-02T23:55:17.226Z,1.55
2023-05-02T23:57:44.997Z,1.27
